Time;durP1;ratioP1;P1;durP2;ratioP2;P2;SDS_P1;SDS_P2;PMS_P1;PMS_P2;Temp;Humidity;BMP_temperature;BMP_pressure;BME280_temperature;BME280_humidity;BME280_pressure;Samples;Min_cycle;Max_cycle;Signal;HPM_P1;HPM_P2
2023/08/11 00:00:08;;;;;;;18.55;16.70;;;17.50;99.90;;;;;;4962219;28;89755;-35
2023/08/11 00:02:37;;;;;;;18.75;16.45;;;17.40;99.90;;;;;;4983377;28;89453;-32
2023/08/11 00:05:04;;;;;;;20.30;17.73;;;17.30;99.90;;;;;;4987081;28;88028;-34
2023/08/11 00:07:29;;;;;;;18.48;16.65;;;17.30;99.90;;;;;;4979852;28;90033;-35
2023/08/11 00:09:55;;;;;;;17.58;15.80;;;17.30;99.90;;;;;;4979110;28;90300;-38
2023/08/11 00:12:21;;;;;;;20.23;17.35;;;17.20;99.90;;;;;;4979173;28;90099;-33
2023/08/11 00:14:47;;;;;;;19.77;17.77;;;17.20;99.90;;;;;;4979368;28;90258;-35
2023/08/11 00:17:13;;;;;;;18.92;17.17;;;17.10;99.90;;;;;;4978626;28;91327;-32
2023/08/11 00:19:38;;;;;;;20.70;18.17;;;17.10;99.90;;;;;;4979002;28;90078;-30
2023/08/11 00:22:06;;;;;;;19.48;17.77;;;17.00;99.90;;;;;;4979421;28;90363;-33
2023/08/11 00:24:31;;;;;;;23.40;19.83;;;17.00;99.90;;;;;;4978583;28;89092;-35
2023/08/11 00:26:57;;;;;;;20.15;18.17;;;17.00;99.90;;;;;;4979463;28;89602;-37
2023/08/11 00:29:23;;;;;;;19.25;17.42;;;16.90;99.90;;;;;;4978667;28;90189;-32
2023/08/11 00:31:49;;;;;;;20.65;18.38;;;16.90;99.90;;;;;;4979176;28;89715;-35
2023/08/11 00:34:14;;;;;;;19.50;17.45;;;16.90;99.90;;;;;;4979313;28;88077;-32
2023/08/11 00:36:40;;;;;;;20.92;18.83;;;16.80;99.90;;;;;;4980221;28;90786;-31
2023/08/11 00:39:05;;;;;;;19.90;17.10;;;16.80;99.90;;;;;;4978727;28;90628;-33
2023/08/11 00:41:32;;;;;;;18.98;17.08;;;16.70;99.90;;;;;;4979108;28;90505;-34
2023/08/11 00:43:58;;;;;;;16.83;15.27;;;16.70;99.90;;;;;;4979437;28;88009;-32
2023/08/11 00:46:24;;;;;;;18.60;16.77;;;16.70;99.90;;;;;;4978940;28;90272;-34
2023/08/11 00:48:53;;;;;;;17.90;15.98;;;16.70;99.90;;;;;;4979225;28;89220;-36
2023/08/11 00:51:23;;;;;;;16.77;15.02;;;16.70;99.90;;;;;;4979725;28;89933;-34
2023/08/11 00:53:50;;;;;;;15.00;13.60;;;16.60;99.90;;;;;;4961089;28;90589;-37
2023/08/11 00:56:19;;;;;;;16.02;13.80;;;16.60;99.90;;;;;;4979963;28;89679;-31
2023/08/11 00:58:45;;;;;;;17.42;13.40;;;16.60;99.90;;;;;;4980702;28;89659;-35
2023/08/11 01:01:11;;;;;;;13.57;12.27;;;16.60;99.90;;;;;;4979013;28;89962;-35
2023/08/11 01:03:37;;;;;;;13.98;12.60;;;16.60;99.90;;;;;;4978153;28;89867;-37
2023/08/11 01:06:28;;;;;;;15.02;12.23;;;16.60;99.90;;;;;;4979643;28;90278;-37
2023/08/11 01:09:19;;;;;;;14.98;11.57;;;16.60;99.90;;;;;;4982598;28;89707;-35
2023/08/11 01:12:03;;;;;;;13.82;12.52;;;16.50;99.90;;;;;;4991188;28;89242;-32
2023/08/11 01:14:45;;;;;;;19.63;13.18;;;16.50;99.90;;;;;;4976844;28;87655;-34
2023/08/11 01:17:13;;;;;;;12.18;11.02;;;16.50;99.90;;;;;;4997122;28;90180;-34
2023/08/11 01:19:39;;;;;;;13.52;12.20;;;16.50;99.90;;;;;;4997742;28;89891;-35
2023/08/11 01:22:12;;;;;;;13.88;12.43;;;16.40;99.90;;;;;;4997909;28;89639;-32
2023/08/11 01:24:38;;;;;;;12.93;11.20;;;16.40;99.90;;;;;;4998033;28;88989;-33
2023/08/11 01:27:05;;;;;;;15.10;13.15;;;16.40;99.90;;;;;;4978428;28;89958;-36
2023/08/11 01:29:30;;;;;;;14.93;13.15;;;16.40;99.90;;;;;;4977117;28;91268;-36
2023/08/11 01:31:56;;;;;;;13.77;12.38;;;16.30;99.90;;;;;;4978719;28;91054;-31
2023/08/11 01:34:22;;;;;;;14.23;12.82;;;16.30;99.90;;;;;;4977921;28;88193;-31
2023/08/11 01:37:05;;;;;;;13.57;12.23;;;16.30;99.90;;;;;;4979220;28;90498;-34
2023/08/11 01:39:31;;;;;;;14.60;13.05;;;16.30;99.90;;;;;;4977875;28;89197;-35
2023/08/11 01:41:57;;;;;;;15.57;13.32;;;16.20;99.90;;;;;;4978222;28;89846;-37
2023/08/11 01:44:25;;;;;;;14.60;13.15;;;16.20;99.90;;;;;;4979551;28;89201;-34
2023/08/11 01:46:55;;;;;;;14.63;13.03;;;16.20;99.90;;;;;;4981586;28;89963;-33
2023/08/11 01:49:24;;;;;;;14.73;12.73;;;16.20;99.90;;;;;;4981352;28;90176;-33
2023/08/11 01:51:50;;;;;;;12.38;11.13;;;16.20;99.90;;;;;;4981041;28;89612;-33
2023/08/11 01:54:16;;;;;;;13.85;12.50;;;16.20;99.90;;;;;;4981384;28;88694;-32
2023/08/11 01:56:42;;;;;;;13.05;11.75;;;16.20;99.90;;;;;;4981747;28;90089;-32
2023/08/11 01:59:12;;;;;;;19.63;12.50;;;16.20;99.90;;;;;;4981596;28;89937;-32
2023/08/11 02:01:38;;;;;;;13.13;11.85;;;16.20;99.90;;;;;;4981387;28;89279;-34
2023/08/11 02:04:05;;;;;;;14.55;13.07;;;16.20;99.90;;;;;;4982057;28;87627;-32
2023/08/11 02:06:31;;;;;;;15.25;13.10;;;16.20;99.90;;;;;;4980793;28;91232;-33
2023/08/11 02:08:57;;;;;;;12.88;11.70;;;16.20;99.90;;;;;;4981116;28;90417;-32
2023/08/11 02:11:22;;;;;;;13.98;12.45;;;16.20;99.90;;;;;;4981925;28;89583;-33
2023/08/11 02:13:48;;;;;;;13.43;12.05;;;16.20;99.90;;;;;;4981243;28;88299;-31
2023/08/11 02:16:14;;;;;;;14.05;12.50;;;16.20;99.90;;;;;;4981043;28;90377;-31
2023/08/11 02:18:39;;;;;;;16.00;14.40;;;16.20;99.90;;;;;;4992578;28;90722;-33
2023/08/11 02:21:07;;;;;;;13.65;12.23;;;16.10;99.90;;;;;;4981008;28;90603;-37
2023/08/11 02:23:33;;;;;;;13.57;11.27;;;16.10;99.90;;;;;;4997515;28;89759;-35
2023/08/11 02:25:59;;;;;;;13.20;12.10;;;16.10;99.90;;;;;;5000490;28;91607;-35
2023/08/11 02:28:25;;;;;;;12.55;11.23;;;16.10;99.90;;;;;;4987232;28;89247;-32
2023/08/11 02:30:50;;;;;;;11.82;10.65;;;16.10;99.90;;;;;;4990755;28;90314;-31
2023/08/11 02:33:18;;;;;;;14.88;11.18;;;16.10;99.90;;;;;;4962634;28;88313;-32
2023/08/11 02:35:45;;;;;;;12.07;11.05;;;16.10;99.90;;;;;;4981781;28;89939;-34
2023/08/11 02:38:12;;;;;;;12.68;11.18;;;16.10;99.90;;;;;;4981915;28;89310;-35
2023/08/11 02:40:38;;;;;;;12.38;11.18;;;16.10;99.90;;;;;;4981369;28;89343;-33
2023/08/11 02:43:04;;;;;;;13.02;11.57;;;16.10;99.90;;;;;;4979927;28;89490;-37
2023/08/11 02:45:30;;;;;;;12.13;10.93;;;16.00;99.90;;;;;;4981309;28;88890;-31
2023/08/11 02:47:56;;;;;;;11.85;10.75;;;16.00;99.90;;;;;;4981621;28;89688;-34
2023/08/11 02:50:22;;;;;;;12.35;11.15;;;16.10;99.90;;;;;;4981693;28;90731;-37
2023/08/11 02:52:48;;;;;;;12.75;11.43;;;16.00;99.90;;;;;;4981085;28;89047;-33
2023/08/11 02:55:14;;;;;;;15.13;13.23;;;16.10;99.90;;;;;;4978769;28;89910;-32
2023/08/11 02:57:40;;;;;;;12.05;10.88;;;16.00;99.90;;;;;;4981044;28;89873;-36
2023/08/11 03:00:13;;;;;;;17.15;10.05;;;15.90;99.90;;;;;;4947144;28;89541;-34
2023/08/11 03:02:45;;;;;;;11.00;9.90;;;15.90;99.90;;;;;;4981220;28;88459;-34
2023/08/11 03:05:11;;;;;;;12.38;10.25;;;15.90;99.90;;;;;;4980485;28;90043;-35
2023/08/11 03:07:38;;;;;;;12.35;10.77;;;15.90;99.90;;;;;;4998979;28;90371;-35
2023/08/11 03:10:05;;;;;;;11.38;10.27;;;15.80;99.90;;;;;;4999514;28;90579;-32
2023/08/11 03:12:30;;;;;;;11.10;9.30;;;15.80;99.90;;;;;;4998895;28;90085;-32
2023/08/11 03:14:56;;;;;;;11.30;10.02;;;15.80;99.90;;;;;;4982632;28;90960;-34
2023/08/11 03:17:22;;;;;;;9.82;8.95;;;15.80;99.90;;;;;;4998597;28;89275;-33
2023/08/11 03:19:48;;;;;;;9.70;8.45;;;15.70;99.90;;;;;;5000419;28;89542;-32
2023/08/11 03:22:17;;;;;;;9.20;8.40;;;15.70;99.90;;;;;;4999041;28;88958;-33
2023/08/11 03:24:44;;;;;;;11.13;10.02;;;15.70;99.90;;;;;;4999666;28;90131;-33
2023/08/11 03:27:12;;;;;;;12.90;11.63;;;15.60;99.90;;;;;;4973642;28;88646;-37
2023/08/11 03:29:38;;;;;;;15.30;11.10;;;15.60;99.90;;;;;;4998644;28;89243;-34
2023/08/11 03:32:03;;;;;;;9.68;8.77;;;15.60;99.90;;;;;;4998803;28;88831;-33
2023/08/11 03:34:29;;;;;;;9.85;8.85;;;15.60;99.90;;;;;;4999767;28;90314;-37
2023/08/11 03:36:55;;;;;;;12.48;8.98;;;15.60;99.90;;;;;;5001057;28;88804;-33
2023/08/11 03:39:20;;;;;;;10.48;9.35;;;15.60;99.90;;;;;;4999277;28;89795;-31
2023/08/11 03:41:46;;;;;;;10.55;9.43;;;15.60;99.90;;;;;;5000338;28;89826;-32
2023/08/11 03:44:11;;;;;;;10.98;9.85;;;15.60;99.90;;;;;;4998111;28;91490;-34
2023/08/11 03:46:37;;;;;;;10.50;9.10;;;15.50;99.90;;;;;;5000322;28;88622;-37
2023/08/11 03:49:06;;;;;;;10.00;9.10;;;15.50;99.90;;;;;;4999314;28;90305;-37
2023/08/11 03:51:32;;;;;;;12.00;10.15;;;15.50;99.90;;;;;;5000179;28;87692;-32
2023/08/11 03:53:59;;;;;;;12.13;10.63;;;15.50;99.90;;;;;;4999112;28;90416;-32
2023/08/11 03:56:25;;;;;;;11.77;10.65;;;15.40;99.90;;;;;;4999508;28;90710;-34
2023/08/11 03:58:50;;;;;;;10.90;9.80;;;15.40;99.90;;;;;;4998160;28;90801;-32
2023/08/11 04:01:16;;;;;;;10.85;9.75;;;15.50;99.90;;;;;;4993209;28;89396;-38
2023/08/11 04:03:42;;;;;;;10.85;9.40;;;15.50;99.90;;;;;;4993021;28;89237;-32
2023/08/11 04:06:08;;;;;;;12.27;10.50;;;15.40;99.90;;;;;;4992191;28;88696;-36
2023/08/11 04:08:34;;;;;;;10.65;9.63;;;15.40;99.90;;;;;;4979565;28;89350;-34
2023/08/11 04:10:59;;;;;;;12.93;10.13;;;15.40;99.90;;;;;;4979922;28;88347;-36
2023/08/11 04:13:25;;;;;;;13.30;9.55;;;15.40;99.90;;;;;;4979697;28;90216;-32
2023/08/11 04:15:51;;;;;;;11.25;10.15;;;15.40;99.90;;;;;;4999776;28;90778;-30
2023/08/11 04:18:16;;;;;;;11.38;9.43;;;15.40;99.90;;;;;;4997398;28;88458;-33
2023/08/11 04:20:42;;;;;;;11.32;10.30;;;15.40;99.90;;;;;;4979713;28;89777;-32
2023/08/11 04:23:07;;;;;;;11.63;10.43;;;15.40;99.90;;;;;;4978725;28;90049;-33
2023/08/11 04:25:33;;;;;;;8.65;7.80;;;15.40;99.90;;;;;;4980033;28;89806;-31
2023/08/11 04:28:02;;;;;;;12.35;9.15;;;15.40;99.90;;;;;;4980247;28;88965;-35
2023/08/11 04:30:28;;;;;;;13.32;9.05;;;15.40;99.90;;;;;;4979630;28;88363;-32
2023/08/11 04:32:55;;;;;;;9.07;7.97;;;15.40;99.90;;;;;;4979800;28;89916;-31
2023/08/11 04:35:21;;;;;;;10.95;9.93;;;15.50;99.90;;;;;;4980096;28;89756;-34
2023/08/11 04:37:46;;;;;;;9.52;8.52;;;15.40;99.90;;;;;;4981806;28;89264;-31
2023/08/11 04:40:13;;;;;;;10.27;9.27;;;15.50;99.90;;;;;;4980997;28;88794;-35
2023/08/11 04:42:40;;;;;;;10.48;9.45;;;15.50;99.90;;;;;;4981193;28;91041;-36
2023/08/11 04:45:06;;;;;;;10.40;8.65;;;15.60;99.90;;;;;;4980099;28;89534;-33
2023/08/11 04:47:32;;;;;;;9.32;8.30;;;15.70;99.90;;;;;;4981405;28;93142;-33
2023/08/11 04:49:58;;;;;;;10.43;9.35;;;15.80;99.90;;;;;;4980543;28;89771;-31
2023/08/11 04:52:23;;;;;;;10.35;9.20;;;15.90;99.90;;;;;;4981525;28;90699;-35
2023/08/11 04:54:49;;;;;;;12.25;8.85;;;16.10;99.90;;;;;;4980148;28;89868;-32
2023/08/11 04:57:14;;;;;;;10.48;8.25;;;16.20;99.90;;;;;;4980034;28;89306;-34
2023/08/11 04:59:40;;;;;;;9.50;8.55;;;16.40;99.90;;;;;;4979786;28;89285;-34
2023/08/11 05:02:07;;;;;;;10.07;8.32;;;16.50;99.90;;;;;;4979786;28;90175;-36
2023/08/11 05:04:33;;;;;;;9.93;8.93;;;16.60;99.90;;;;;;4962046;28;89295;-30
2023/08/11 05:06:59;;;;;;;12.38;8.05;;;16.70;99.90;;;;;;4979367;28;89553;-34
2023/08/11 05:09:25;;;;;;;16.45;8.85;;;16.90;99.90;;;;;;4978376;28;89672;-32
2023/08/11 05:11:50;;;;;;;14.57;7.50;;;16.90;99.90;;;;;;4979691;28;90027;-31
2023/08/11 05:14:17;;;;;;;14.40;8.02;;;17.00;99.90;;;;;;4978591;28;89837;-32
2023/08/11 05:16:46;;;;;;;8.73;7.20;;;17.10;99.90;;;;;;4979778;28;89472;-37
2023/08/11 05:19:13;;;;;;;12.93;8.18;;;17.20;99.90;;;;;;4978751;28;88512;-33
2023/08/11 05:21:39;;;;;;;8.88;7.82;;;17.30;99.90;;;;;;4979948;28;90057;-31
2023/08/11 05:24:06;;;;;;;8.13;7.30;;;17.40;99.90;;;;;;4978955;28;90167;-34
2023/08/11 05:26:32;;;;;;;8.73;7.80;;;17.60;99.90;;;;;;4979921;28;89719;-31
2023/08/11 05:28:58;;;;;;;8.00;7.10;;;17.60;99.90;;;;;;4979514;28;88806;-35
2023/08/11 05:31:24;;;;;;;8.38;7.38;;;17.70;99.90;;;;;;4978709;28;90673;-31
2023/08/11 05:33:49;;;;;;;8.55;7.75;;;17.80;99.90;;;;;;4978920;28;91102;-34
2023/08/11 05:36:15;;;;;;;11.48;8.55;;;17.90;99.90;;;;;;4960825;28;91166;-37
2023/08/11 05:38:41;;;;;;;16.92;8.32;;;18.00;99.90;;;;;;4979454;28;88941;-34
2023/08/11 05:41:06;;;;;;;9.30;8.30;;;18.10;99.90;;;;;;4979755;28;91959;-32
2023/08/11 05:43:32;;;;;;;9.95;8.15;;;18.20;99.90;;;;;;4979030;28;90273;-33
2023/08/11 05:45:58;;;;;;;9.88;8.90;;;18.30;99.90;;;;;;4979599;28;89129;-35
2023/08/11 05:48:23;;;;;;;8.63;7.80;;;18.40;99.90;;;;;;4978987;28;89165;-35
2023/08/11 05:50:50;;;;;;;8.73;7.93;;;18.40;99.90;;;;;;4979899;28;90534;-34
2023/08/11 05:53:15;;;;;;;10.65;8.25;;;18.60;99.90;;;;;;4978828;28;90391;-32
2023/08/11 05:55:41;;;;;;;8.43;7.53;;;18.60;99.90;;;;;;4978619;28;89457;-33
2023/08/11 05:58:07;;;;;;;12.38;8.48;;;18.70;99.90;;;;;;4978914;28;89499;-37
2023/08/11 06:00:32;;;;;;;9.40;7.88;;;18.70;99.90;;;;;;4978402;28;90419;-37
2023/08/11 06:02:58;;;;;;;11.02;8.57;;;18.80;99.90;;;;;;4986613;28;89847;-35
2023/08/11 06:05:24;;;;;;;10.32;8.30;;;18.90;99.90;;;;;;4995728;28;89147;-34
2023/08/11 06:07:50;;;;;;;9.48;8.10;;;18.90;99.90;;;;;;4998584;28;88712;-34
2023/08/11 06:10:15;;;;;;;8.52;7.65;;;19.00;99.90;;;;;;4995880;28;89919;-34
2023/08/11 06:12:41;;;;;;;14.05;8.10;;;19.00;99.90;;;;;;4981682;28;89686;-32
2023/08/11 06:15:08;;;;;;;9.13;7.95;;;19.00;99.90;;;;;;4987675;28;88945;-31
2023/08/11 06:17:35;;;;;;;11.23;8.40;;;19.10;99.90;;;;;;4983152;28;89441;-31
2023/08/11 06:20:01;;;;;;;8.93;8.05;;;19.10;99.90;;;;;;4986310;28;90271;-34
2023/08/11 06:22:27;;;;;;;8.90;8.05;;;19.10;99.90;;;;;;4980320;28;90112;-34
2023/08/11 06:24:53;;;;;;;8.80;7.70;;;19.10;99.90;;;;;;4984807;28;92514;-33
2023/08/11 06:27:19;;;;;;;10.30;7.30;;;19.20;99.90;;;;;;4978617;28;88900;-34
2023/08/11 06:29:45;;;;;;;8.07;7.28;;;19.20;99.90;;;;;;4967919;28;90200;-36
2023/08/11 06:32:11;;;;;;;6.55;5.82;;;19.30;99.90;;;;;;4979337;28;89225;-36
2023/08/11 06:34:36;;;;;;;6.50;5.90;;;19.50;99.90;;;;;;4986981;28;90924;-32
2023/08/11 06:37:02;;;;;;;7.88;6.90;;;19.50;99.90;;;;;;4983241;28;88160;-32
2023/08/11 06:39:28;;;;;;;7.90;5.80;;;19.60;99.90;;;;;;4986355;28;89731;-37
2023/08/11 06:41:54;;;;;;;5.97;5.38;;;19.80;99.90;;;;;;4983772;28;89613;-33
2023/08/11 06:44:19;;;;;;;7.40;5.63;;;19.90;99.90;;;;;;4986680;28;89796;-34
2023/08/11 06:46:45;;;;;;;7.78;5.38;;;20.20;99.90;;;;;;4983055;28;88683;-32
2023/08/11 06:49:11;;;;;;;7.85;5.93;;;20.50;99.90;;;;;;4985948;28;88744;-36
2023/08/11 06:51:36;;;;;;;8.05;5.47;;;20.60;99.90;;;;;;4983590;28;89831;-35
2023/08/11 06:54:02;;;;;;;6.32;5.38;;;20.90;99.90;;;;;;4986418;28;89350;-35
2023/08/11 06:56:28;;;;;;;9.05;5.43;;;21.00;99.90;;;;;;4982402;28;89393;-33
2023/08/11 06:58:54;;;;;;;5.90;5.28;;;21.20;99.90;;;;;;4986088;28;90070;-35
2023/08/11 07:01:19;;;;;;;7.55;4.65;;;21.40;99.90;;;;;;4981362;28;89647;-35
2023/08/11 07:03:45;;;;;;;7.68;5.15;;;21.60;99.90;;;;;;4993164;28;89272;-32
2023/08/11 07:06:11;;;;;;;5.68;4.13;;;21.80;99.90;;;;;;4998110;28;88851;-34
2023/08/11 07:08:36;;;;;;;4.25;3.95;;;21.90;99.90;;;;;;4997969;28;89896;-37
2023/08/11 07:11:02;;;;;;;5.80;4.07;;;22.00;99.90;;;;;;4978428;28;90690;-31
2023/08/11 07:13:28;;;;;;;11.57;4.95;;;22.40;99.90;;;;;;4978054;28;90379;-35
2023/08/11 07:15:57;;;;;;;7.28;4.60;;;22.60;99.90;;;;;;4979256;28;88871;-32
2023/08/11 07:18:23;;;;;;;6.40;5.03;;;22.80;99.90;;;;;;4979310;28;90219;-34
2023/08/11 07:20:49;;;;;;;4.15;3.85;;;22.80;99.90;;;;;;4979079;28;90001;-36
2023/08/11 07:23:18;;;;;;;4.57;4.10;;;23.00;99.90;;;;;;4978851;28;89328;-33
2023/08/11 07:25:44;;;;;;;5.00;4.57;;;23.20;99.90;;;;;;4979473;28;89802;-35
2023/08/11 07:28:10;;;;;;;4.25;3.88;;;23.10;99.90;;;;;;4980062;28;89947;-36
2023/08/11 07:30:36;;;;;;;6.07;4.07;;;23.20;99.90;;;;;;4978973;28;89320;-34
2023/08/11 07:33:02;;;;;;;4.03;3.72;;;23.50;99.90;;;;;;4980258;28;89343;-34
2023/08/11 07:35:28;;;;;;;6.28;4.32;;;23.90;99.90;;;;;;4978083;28;89956;-34
2023/08/11 07:37:54;;;;;;;4.72;4.22;;;24.00;99.90;;;;;;4980186;28;90265;-35
2023/08/11 07:40:21;;;;;;;8.73;4.07;;;24.10;99.90;;;;;;4978574;28;89833;-33
2023/08/11 07:42:47;;;;;;;4.28;3.85;;;24.10;99.90;;;;;;4979111;28;89371;-37
2023/08/11 07:45:13;;;;;;;3.80;3.50;;;24.10;99.90;;;;;;4978818;28;88410;-38
2023/08/11 07:47:39;;;;;;;4.28;3.50;;;24.20;99.90;;;;;;4978856;28;90254;-33
2023/08/11 07:50:05;;;;;;;4.93;4.18;;;24.60;99.90;;;;;;4978011;28;90035;-34
2023/08/11 07:52:31;;;;;;;5.32;3.50;;;24.70;99.90;;;;;;4979630;28;90220;-35
2023/08/11 07:54:56;;;;;;;4.00;3.63;;;24.80;99.90;;;;;;4978467;28;88922;-31
2023/08/11 07:57:23;;;;;;;4.15;3.53;;;24.80;99.90;;;;;;4979100;28;89175;-38
2023/08/11 07:59:48;;;;;;;4.10;3.70;;;25.00;99.90;;;;;;4977644;28;90656;-31
2023/08/11 08:02:15;;;;;;;3.92;3.63;;;25.20;99.90;;;;;;4977590;28;89640;-33
2023/08/11 08:04:42;;;;;;;5.97;4.18;;;25.10;99.90;;;;;;4986391;28;88214;-32
2023/08/11 08:07:08;;;;;;;5.00;3.50;;;25.10;99.90;;;;;;4994586;28;91481;-34
2023/08/11 08:09:34;;;;;;;4.30;3.53;;;25.20;99.90;;;;;;4977634;28;90254;-33
2023/08/11 08:12:01;;;;;;;4.28;3.88;;;25.60;99.90;;;;;;4977542;28;89412;-33
2023/08/11 08:14:27;;;;;;;4.97;3.90;;;25.20;99.90;;;;;;4977825;28;89240;-36
2023/08/11 08:19:45;;;;;;;4.38;3.92;;;25.50;99.90;;;;;;4976196;28;90240;-32
2023/08/11 08:22:10;;;;;;;4.90;4.32;;;25.50;99.90;;;;;;4976781;28;89941;-33
2023/08/11 08:24:36;;;;;;;4.10;3.67;;;25.40;99.90;;;;;;4974788;28;89529;-36
2023/08/11 08:27:02;;;;;;;4.43;3.55;;;25.30;99.90;;;;;;4973054;28;90764;-35
2023/08/11 08:29:28;;;;;;;3.92;3.42;;;25.70;99.90;;;;;;4977076;28;89376;-34
2023/08/11 08:31:54;;;;;;;4.82;4.43;;;25.90;99.90;;;;;;4977773;28;89892;-35
2023/08/11 08:34:19;;;;;;;4.43;3.50;;;25.80;99.90;;;;;;4977124;28;89491;-37
2023/08/11 08:36:45;;;;;;;4.63;3.25;;;25.80;99.90;;;;;;4977515;28;91234;-31
2023/08/11 08:39:11;;;;;;;6.75;4.28;;;25.70;99.90;;;;;;4976611;28;89801;-34
2023/08/11 08:41:38;;;;;;;3.80;3.50;;;25.70;99.90;;;;;;4977180;28;89906;-32
2023/08/11 08:44:04;;;;;;;3.28;2.97;;;25.60;99.90;;;;;;4977825;28;88453;-35
2023/08/11 08:46:31;;;;;;;4.00;3.70;;;26.00;99.90;;;;;;4977284;28;89631;-32
2023/08/11 08:49:24;;;;;;;5.23;4.20;;;25.90;99.90;;;;;;4976848;28;91488;-37
2023/08/11 08:51:51;;;;;;;5.78;4.45;;;25.80;99.90;;;;;;4973896;28;90350;-32
2023/08/11 08:54:17;;;;;;;4.68;3.80;;;25.60;99.90;;;;;;4975519;28;88084;-35
2023/08/11 08:56:43;;;;;;;6.70;4.07;;;26.00;99.90;;;;;;4977194;28;90293;-36
2023/08/11 08:59:09;;;;;;;4.85;4.45;;;26.30;99.90;;;;;;4975904;28;92672;-32
2023/08/11 09:01:36;;;;;;;5.00;4.57;;;26.30;99.90;;;;;;4976745;28;90144;-36
2023/08/11 09:04:03;;;;;;;4.22;3.85;;;26.10;99.90;;;;;;4976890;28;88191;-36
2023/08/11 09:06:29;;;;;;;4.37;3.70;;;26.10;99.90;;;;;;4976736;28;90093;-34
2023/08/11 09:08:55;;;;;;;5.00;4.03;;;26.30;99.90;;;;;;4977107;28;89684;-32
2023/08/11 09:11:24;;;;;;;4.78;4.22;;;26.50;99.90;;;;;;4976011;28;90215;-32
2023/08/11 09:13:49;;;;;;;5.20;3.78;;;26.50;99.90;;;;;;4976228;28;90218;-35
2023/08/11 09:16:15;;;;;;;6.20;4.60;;;26.70;99.90;;;;;;4976193;28;90202;-35
2023/08/11 09:18:43;;;;;;;9.32;4.85;;;26.60;99.90;;;;;;4976674;28;89951;-34
2023/08/11 09:21:09;;;;;;;4.78;3.58;;;26.30;99.90;;;;;;4976140;28;89789;-32
2023/08/11 09:23:36;;;;;;;4.28;3.88;;;26.50;99.90;;;;;;4976799;28;88734;-34
2023/08/11 09:26:01;;;;;;;5.18;4.63;;;26.30;99.90;;;;;;4976491;28;90327;-36
2023/08/11 09:28:27;;;;;;;7.68;3.78;;;26.50;99.90;;;;;;4975593;28;90399;-35
2023/08/11 09:30:54;;;;;;;4.30;4.00;;;26.40;99.90;;;;;;4976442;28;89520;-34
2023/08/11 09:33:24;;;;;;;4.50;4.05;;;26.10;99.90;;;;;;4976153;28;88813;-36
2023/08/11 09:35:50;;;;;;;5.40;4.40;;;26.20;99.90;;;;;;4977023;28;90019;-34
2023/08/11 09:38:16;;;;;;;5.60;4.70;;;25.90;99.90;;;;;;4975210;28;90583;-35
2023/08/11 09:40:41;;;;;;;7.88;3.75;;;26.10;99.90;;;;;;4976468;28;90396;-36
2023/08/11 09:43:09;;;;;;;4.95;4.45;;;26.40;99.90;;;;;;4976490;28;89142;-37
2023/08/11 09:45:35;;;;;;;6.25;4.97;;;26.40;99.70;;;;;;4976215;28;90152;-32
2023/08/11 09:48:00;;;;;;;4.03;3.63;;;26.10;99.80;;;;;;4976693;28;89241;-33
2023/08/11 09:50:28;;;;;;;3.78;3.47;;;26.50;99.90;;;;;;4976105;28;89726;-32
2023/08/11 09:52:57;;;;;;;4.22;3.85;;;26.50;99.90;;;;;;4975806;28;88919;-35
2023/08/11 09:55:23;;;;;;;6.15;3.85;;;26.40;98.80;;;;;;4975492;28;90578;-33
2023/08/11 09:57:50;;;;;;;5.95;3.67;;;26.50;97.00;;;;;;4976554;28;89895;-33
2023/08/11 10:00:19;;;;;;;8.47;4.00;;;26.70;99.90;;;;;;4975693;28;90990;-33
2023/08/11 10:03:06;;;;;;;4.90;4.40;;;26.80;99.90;;;;;;4975634;28;89577;-34
2023/08/11 10:05:39;;;;;;;3.90;3.63;;;26.80;97.60;;;;;;4976427;28;89412;-33
2023/08/11 10:08:09;;;;;;;4.70;3.78;;;26.50;97.00;;;;;;4979789;28;90052;-35
2023/08/11 10:10:36;;;;;;;3.97;3.58;;;26.70;99.90;;;;;;4979689;28;89046;-36
2023/08/11 10:13:08;;;;;;;7.60;4.30;;;26.80;99.90;;;;;;4980221;28;89898;-34
2023/08/11 10:15:34;;;;;;;10.48;3.75;;;26.70;99.70;;;;;;4979513;28;89842;-35
2023/08/11 10:18:02;;;;;;;3.97;3.63;;;26.90;99.90;;;;;;4978492;28;89623;-35
2023/08/11 10:20:29;;;;;;;4.17;3.50;;;26.90;99.90;;;;;;4978225;28;89572;-35
2023/08/11 10:22:56;;;;;;;5.88;4.05;;;27.00;98.30;;;;;;4980015;28;89280;-35
2023/08/11 10:25:22;;;;;;;4.88;3.53;;;27.10;99.90;;;;;;4979381;28;92274;-33
2023/08/11 10:27:48;;;;;;;5.05;3.90;;;27.20;99.90;;;;;;4978965;28;91428;-33
2023/08/11 10:30:14;;;;;;;4.05;3.75;;;27.10;99.90;;;;;;4978864;28;90036;-33
2023/08/11 10:32:40;;;;;;;3.97;3.63;;;27.00;99.90;;;;;;4979373;28;90143;-34
2023/08/11 10:35:07;;;;;;;4.40;3.97;;;27.20;99.90;;;;;;4978580;28;90764;-37
2023/08/11 10:37:33;;;;;;;5.13;3.45;;;27.20;99.90;;;;;;4978930;28;91352;-34
2023/08/11 10:40:05;;;;;;;4.93;4.03;;;27.20;97.40;;;;;;4978397;28;89342;-35
2023/08/11 10:42:31;;;;;;;4.75;3.90;;;27.20;99.90;;;;;;4979194;28;88350;-32
2023/08/11 10:45:24;;;;;;;4.53;3.58;;;27.30;99.90;;;;;;4978781;28;90667;-35
2023/08/11 10:47:54;;;;;;;5.03;3.67;;;27.10;99.90;;;;;;4975881;28;89985;-33
2023/08/11 10:50:21;;;;;;;3.83;3.53;;;27.20;99.90;;;;;;4978574;28;89543;-34
2023/08/11 10:52:54;;;;;;;4.55;4.13;;;27.10;99.90;;;;;;4977871;28;90525;-33
2023/08/11 10:55:20;;;;;;;4.72;4.28;;;27.10;98.10;;;;;;4978160;28;90313;-32
2023/08/11 10:58:12;;;;;;;6.20;3.67;;;27.00;98.80;;;;;;4978558;28;89152;-36
2023/08/11 11:00:39;;;;;;;6.03;3.38;;;26.90;99.30;;;;;;4978814;28;87726;-31
2023/08/11 11:03:06;;;;;;;4.95;4.45;;;26.70;99.90;;;;;;4979397;28;88041;-33
2023/08/11 11:05:32;;;;;;;5.07;3.83;;;26.80;99.80;;;;;;4977762;28;90267;-34
2023/08/11 11:07:57;;;;;;;4.22;3.83;;;26.80;99.90;;;;;;4978853;28;89654;-37
2023/08/11 11:10:23;;;;;;;4.10;3.53;;;26.80;99.90;;;;;;4978268;28;89957;-35
2023/08/11 11:12:49;;;;;;;3.33;2.70;;;27.00;99.90;;;;;;4975339;28;89623;-36
2023/08/11 11:15:14;;;;;;;6.18;3.70;;;27.00;99.90;;;;;;4978039;28;90209;-32
2023/08/11 11:17:40;;;;;;;3.92;3.25;;;26.90;99.90;;;;;;4976374;28;90867;-35
2023/08/11 11:20:07;;;;;;;2.95;2.63;;;27.00;99.70;;;;;;4978413;28;90002;-36
2023/08/11 11:22:32;;;;;;;4.30;3.08;;;27.00;95.10;;;;;;4978801;28;89444;-33
2023/08/11 11:25:01;;;;;;;4.47;3.63;;;27.00;97.90;;;;;;4977502;28;90431;-37
2023/08/11 11:27:26;;;;;;;5.57;3.60;;;26.90;95.80;;;;;;4978567;28;90027;-37
2023/08/11 11:29:58;;;;;;;3.50;3.20;;;26.80;94.50;;;;;;4977538;28;89506;-34
2023/08/11 11:32:24;;;;;;;3.20;2.90;;;26.80;93.80;;;;;;4978730;28;89137;-34
2023/08/11 11:34:50;;;;;;;7.72;3.92;;;26.90;90.90;;;;;;4977668;28;90242;-36
2023/08/11 11:37:15;;;;;;;4.30;3.45;;;26.80;96.10;;;;;;4978115;28;89664;-35
2023/08/11 11:39:42;;;;;;;4.47;3.33;;;27.00;99.90;;;;;;4977260;28;89666;-35
2023/08/11 11:42:10;;;;;;;6.13;3.63;;;27.00;97.70;;;;;;4976824;28;88627;-35
2023/08/11 11:44:37;;;;;;;3.10;2.80;;;27.00;96.50;;;;;;4977745;28;89931;-37
2023/08/11 11:47:03;;;;;;;3.15;2.95;;;27.00;90.60;;;;;;4977993;28;89643;-37
2023/08/11 11:49:31;;;;;;;3.50;3.20;;;26.90;86.10;;;;;;4977375;28;89092;-33
2023/08/11 11:51:58;;;;;;;3.75;3.13;;;27.00;88.60;;;;;;4977752;28;88453;-37
2023/08/11 11:54:28;;;;;;;3.67;2.85;;;27.00;88.50;;;;;;4977644;28;90509;-36
2023/08/11 11:56:54;;;;;;;4.28;2.65;;;26.90;93.00;;;;;;4977933;28;90351;-35
2023/08/11 11:59:21;;;;;;;4.47;3.92;;;27.00;90.70;;;;;;4977233;28;89632;-36
2023/08/11 12:01:46;;;;;;;4.33;2.90;;;26.90;91.20;;;;;;4978019;28;88602;-33
2023/08/11 12:04:12;;;;;;;3.58;3.00;;;27.10;96.10;;;;;;4977782;28;90092;-34
2023/08/11 12:06:38;;;;;;;4.15;3.55;;;27.00;92.30;;;;;;4977466;28;90463;-35
2023/08/11 12:09:10;;;;;;;4.28;3.45;;;27.00;90.70;;;;;;4976789;28;90571;-38
2023/08/11 12:11:39;;;;;;;4.20;3.80;;;27.00;90.30;;;;;;4977298;28;89103;-33
2023/08/11 12:14:05;;;;;;;7.65;3.58;;;27.00;90.20;;;;;;4977143;28;89768;-35
2023/08/11 12:16:31;;;;;;;3.67;3.00;;;26.90;93.30;;;;;;4978254;28;89824;-35
2023/08/11 12:19:01;;;;;;;5.00;3.22;;;26.90;92.70;;;;;;4977129;28;89692;-35
2023/08/11 12:21:28;;;;;;;4.40;3.05;;;26.90;86.70;;;;;;4977171;28;89295;-36
2023/08/11 12:23:54;;;;;;;8.02;2.80;;;26.90;92.20;;;;;;4977521;28;89831;-34
2023/08/11 12:26:19;;;;;;;2.63;2.42;;;26.80;92.20;;;;;;4977233;28;90196;-32
2023/08/11 12:28:45;;;;;;;3.33;2.80;;;26.90;96.20;;;;;;4976832;28;90643;-32
2023/08/11 12:31:11;;;;;;;3.85;3.25;;;26.90;93.10;;;;;;4976432;28;90395;-36
2023/08/11 12:33:38;;;;;;;3.78;3.10;;;26.90;91.80;;;;;;4977612;28;91008;-36
2023/08/11 12:36:03;;;;;;;3.77;3.03;;;27.00;97.70;;;;;;4977136;28;89299;-33
2023/08/11 12:38:30;;;;;;;5.35;3.90;;;27.10;95.00;;;;;;4977396;28;90026;-35
2023/08/11 12:40:57;;;;;;;4.22;3.10;;;27.10;90.60;;;;;;4977649;28;89425;-37